createdAt,value
2023-05-10T00:00:44.216Z,9.85
2023-05-10T00:03:11.672Z,9.94
2023-05-10T00:05:38.913Z,9.90
2023-05-10T00:08:06.346Z,9.86
2023-05-10T00:10:33.661Z,9.96
2023-05-10T00:13:01.055Z,9.83
2023-05-10T00:15:28.415Z,9.66
2023-05-10T00:17:56.130Z,9.70
2023-05-10T00:20:23.453Z,9.75
2023-05-10T00:22:50.643Z,9.89
2023-05-10T00:25:17.949Z,9.82
2023-05-10T00:27:45.198Z,9.80
2023-05-10T00:30:12.492Z,9.82
2023-05-10T00:32:39.765Z,9.59
2023-05-10T00:35:07.321Z,9.69
2023-05-10T00:37:34.692Z,9.70
2023-05-10T00:40:01.802Z,9.59
2023-05-10T00:42:29.041Z,9.65
2023-05-10T00:44:56.627Z,9.75
2023-05-10T00:47:24.014Z,9.69
2023-05-10T00:49:51.423Z,9.75
2023-05-10T00:52:18.731Z,9.69
2023-05-10T00:54:45.992Z,9.80
2023-05-10T00:57:13.244Z,9.76
2023-05-10T00:59:40.849Z,9.82
2023-05-10T01:02:08.044Z,9.80
2023-05-10T01:04:36.504Z,9.73
2023-05-10T01:07:04.181Z,9.62
2023-05-10T01:09:31.739Z,9.73
2023-05-10T01:11:59.376Z,9.66
2023-05-10T01:14:27.722Z,9.70
2023-05-10T01:16:55.967Z,9.63
2023-05-10T01:19:25.968Z,9.65
2023-05-10T01:22:14.817Z,9.53
2023-05-10T01:24:55.296Z,9.42
2023-05-10T01:27:31.633Z,9.46
2023-05-10T01:30:30.175Z,9.53
2023-05-10T01:33:12.770Z,9.60
2023-05-10T01:35:44.349Z,9.52
2023-05-10T01:38:30.385Z,9.52
2023-05-10T01:41:20.793Z,9.59
2023-05-10T01:43:58.576Z,9.56
2023-05-10T01:46:32.248Z,9.60
2023-05-10T01:49:03.149Z,9.58
2023-05-10T01:51:48.991Z,9.56
2023-05-10T01:54:18.699Z,9.53
2023-05-10T01:56:51.356Z,9.46
2023-05-10T01:59:20.982Z,9.43
2023-05-10T02:01:49.686Z,9.46
2023-05-10T02:04:20.218Z,9.58
2023-05-10T02:06:49.087Z,9.53
2023-05-10T02:09:18.825Z,9.55
2023-05-10T02:11:47.995Z,9.58
2023-05-10T02:14:17.647Z,9.52
2023-05-10T02:16:46.036Z,9.49
2023-05-10T02:19:15.367Z,9.48
2023-05-10T02:21:42.890Z,9.50
2023-05-10T02:24:11.907Z,9.39
2023-05-10T02:26:39.649Z,9.48
2023-05-10T02:29:08.565Z,9.50
2023-05-10T02:31:36.559Z,9.35
2023-05-10T02:34:07.329Z,9.46
2023-05-10T02:36:35.170Z,9.50
2023-05-10T02:39:03.263Z,9.43
2023-05-10T02:41:33.146Z,9.52
2023-05-10T02:44:03.904Z,9.55
2023-05-10T02:46:31.826Z,9.55
2023-05-10T02:48:59.308Z,9.46
2023-05-10T02:51:32.596Z,9.28
2023-05-10T02:54:07.907Z,9.38
2023-05-10T02:56:40.486Z,9.30
2023-05-10T02:59:07.712Z,9.43
2023-05-10T03:01:34.986Z,9.18
2023-05-10T03:04:02.321Z,9.20
2023-05-10T03:06:29.681Z,9.21
2023-05-10T03:08:57.526Z,9.28
2023-05-10T03:11:39.857Z,9.18
2023-05-10T03:14:18.369Z,9.31
2023-05-10T03:16:59.113Z,9.25
2023-05-10T03:19:44.381Z,9.18
2023-05-10T03:22:14.221Z,9.21
2023-05-10T03:24:43.105Z,9.22
2023-05-10T03:27:11.702Z,9.25
2023-05-10T03:29:40.142Z,9.21
2023-05-10T03:32:07.552Z,9.25
2023-05-10T03:34:34.762Z,9.22
2023-05-10T03:37:02.053Z,9.22
2023-05-10T03:39:31.817Z,9.15
2023-05-10T03:42:00.627Z,9.25
2023-05-10T03:44:27.872Z,9.10
2023-05-10T03:46:55.511Z,9.18
2023-05-10T03:49:22.766Z,9.22
2023-05-10T03:51:50.143Z,9.27
2023-05-10T03:54:17.255Z,9.11
2023-05-10T03:56:44.436Z,9.20
2023-05-10T03:59:11.568Z,9.21
2023-05-10T04:01:38.938Z,9.20
2023-05-10T04:04:06.194Z,9.32
2023-05-10T04:06:33.911Z,9.35
2023-05-10T04:09:04.906Z,9.43
2023-05-10T04:11:32.101Z,9.42
2023-05-10T04:13:59.325Z,9.41
2023-05-10T04:16:26.535Z,9.48
2023-05-10T04:18:53.671Z,9.46
2023-05-10T04:21:21.452Z,9.60
2023-05-10T04:23:48.558Z,9.73
2023-05-10T04:26:16.484Z,9.77
2023-05-10T04:28:43.819Z,9.77
2023-05-10T04:31:11.467Z,9.93
2023-05-10T04:33:38.713Z,9.93
2023-05-10T04:36:06.397Z,10.14
2023-05-10T04:38:33.621Z,10.33
2023-05-10T04:41:08.324Z,10.46
2023-05-10T04:43:37.430Z,10.55
2023-05-10T04:46:05.594Z,10.66
2023-05-10T04:48:32.860Z,10.86
2023-05-10T04:51:00.029Z,11.03
2023-05-10T04:53:27.392Z,11.16
2023-05-10T04:55:54.649Z,11.27
2023-05-10T04:58:21.929Z,11.61
2023-05-10T05:00:49.313Z,12.57
2023-05-10T05:03:16.578Z,13.67
2023-05-10T05:05:44.730Z,13.94
2023-05-10T05:08:12.016Z,14.93
2023-05-10T05:10:39.236Z,14.72
2023-05-10T05:13:06.681Z,14.42
2023-05-10T05:15:34.123Z,14.40
2023-05-10T05:18:01.442Z,14.76
2023-05-10T05:20:28.809Z,14.46
2023-05-10T05:22:56.007Z,14.36
2023-05-10T05:25:23.224Z,13.75
2023-05-10T05:27:50.476Z,13.70
2023-05-10T05:30:18.227Z,13.61
2023-05-10T05:32:45.725Z,14.12
2023-05-10T05:35:13.186Z,14.45
2023-05-10T05:37:40.593Z,15.91
2023-05-10T05:40:08.406Z,16.51
2023-05-10T05:42:35.777Z,15.87
2023-05-10T05:45:02.973Z,15.91
2023-05-10T05:47:30.209Z,16.55
2023-05-10T05:49:57.323Z,16.65
2023-05-10T05:52:24.588Z,16.76
2023-05-10T05:54:51.814Z,17.54
2023-05-10T05:57:19.011Z,17.27
2023-05-10T05:59:46.691Z,16.89
2023-05-10T06:02:13.998Z,17.21
2023-05-10T06:04:44.430Z,17.99
2023-05-10T06:07:12.177Z,18.36
2023-05-10T06:09:39.411Z,18.92
2023-05-10T06:12:06.786Z,18.32
2023-05-10T06:14:33.973Z,18.50
2023-05-10T06:17:01.643Z,19.43
2023-05-10T06:19:28.945Z,19.56
2023-05-10T06:21:56.113Z,19.89
2023-05-10T06:24:23.373Z,19.09
2023-05-10T06:26:50.999Z,19.03
2023-05-10T06:29:18.612Z,18.79
2023-05-10T06:31:45.838Z,18.58
2023-05-10T06:34:13.306Z,19.09
2023-05-10T06:36:40.483Z,19.05
2023-05-10T06:39:08.130Z,19.78
2023-05-10T06:41:35.375Z,19.06
2023-05-10T06:44:02.604Z,19.27
2023-05-10T06:46:29.837Z,19.18
2023-05-10T06:48:57.154Z,17.93
2023-05-10T06:51:24.383Z,17.30
2023-05-10T06:53:51.589Z,16.47
2023-05-10T06:56:18.773Z,16.71
2023-05-10T06:58:45.991Z,16.27
2023-05-10T07:01:13.360Z,16.44
2023-05-10T07:03:40.590Z,16.71
2023-05-10T07:06:13.355Z,16.27
2023-05-10T07:08:45.951Z,15.96
2023-05-10T07:11:13.300Z,17.07
2023-05-10T07:13:42.428Z,17.62
2023-05-10T07:16:09.945Z,17.50
2023-05-10T07:18:37.281Z,18.74
2023-05-10T07:21:04.813Z,18.88
2023-05-10T07:23:32.604Z,19.80
2023-05-10T07:26:00.413Z,19.59
2023-05-10T07:28:27.790Z,19.88
2023-05-10T07:30:55.068Z,20.14
2023-05-10T07:33:22.519Z,20.70
2023-05-10T07:35:50.894Z,20.40
2023-05-10T07:38:18.536Z,20.97
2023-05-10T07:40:45.626Z,22.06
2023-05-10T07:43:12.786Z,22.54
2023-05-10T07:45:40.028Z,21.92
2023-05-10T07:48:07.337Z,20.57
2023-05-10T07:50:34.830Z,20.07
2023-05-10T07:53:02.077Z,19.68
2023-05-10T07:55:29.252Z,19.37
2023-05-10T07:57:57.067Z,20.40
2023-05-10T08:00:24.298Z,20.33
2023-05-10T08:02:51.709Z,19.95
2023-05-10T08:05:19.137Z,21.37
2023-05-10T08:07:46.597Z,22.16
2023-05-10T08:10:13.725Z,21.34
2023-05-10T08:12:41.074Z,21.67
2023-05-10T08:15:09.542Z,21.08
2023-05-10T08:17:36.944Z,20.52
2023-05-10T08:20:04.478Z,21.90
2023-05-10T08:22:31.976Z,20.80
2023-05-10T08:24:59.181Z,21.12
2023-05-10T08:27:26.449Z,19.87
2023-05-10T08:29:53.597Z,20.56
2023-05-10T08:32:22.171Z,20.94
2023-05-10T08:34:49.354Z,21.48
2023-05-10T08:37:17.486Z,20.18
2023-05-10T08:39:44.682Z,20.19
2023-05-10T08:42:13.108Z,19.92
2023-05-10T08:44:40.688Z,19.30
2023-05-10T08:47:08.565Z,19.49
2023-05-10T08:49:37.714Z,20.42
2023-05-10T08:52:06.942Z,20.14
2023-05-10T08:54:35.270Z,19.54
2023-05-10T08:57:02.997Z,19.43
2023-05-10T08:59:30.474Z,19.51
2023-05-10T09:02:01.576Z,20.19
2023-05-10T09:04:29.415Z,19.84
2023-05-10T09:06:56.934Z,20.87
2023-05-10T09:09:26.243Z,21.24
2023-05-10T09:11:54.245Z,20.95
2023-05-10T09:14:21.848Z,21.02
2023-05-10T09:16:49.104Z,20.40
2023-05-10T09:19:16.332Z,21.12
2023-05-10T09:21:44.134Z,20.45
2023-05-10T09:24:11.439Z,20.02
2023-05-10T09:26:50.953Z,19.71
2023-05-10T09:29:18.530Z,19.95
2023-05-10T09:31:55.597Z,20.07
2023-05-10T09:34:33.119Z,20.18
2023-05-10T09:37:02.412Z,19.66
2023-05-10T09:39:32.977Z,19.51
2023-05-10T09:42:04.727Z,19.06
2023-05-10T09:44:35.450Z,19.02
2023-05-10T09:47:03.670Z,19.30
2023-05-10T09:49:31.142Z,19.30
2023-05-10T09:52:08.612Z,19.39
2023-05-10T09:54:36.193Z,19.09
2023-05-10T09:57:03.508Z,19.27
2023-05-10T09:59:31.378Z,19.37
2023-05-10T10:02:00.580Z,19.41
2023-05-10T10:04:28.410Z,19.01
2023-05-10T10:07:03.773Z,19.24
2023-05-10T10:09:31.212Z,18.82
2023-05-10T10:11:58.649Z,18.92
2023-05-10T10:14:26.419Z,19.33
2023-05-10T10:17:06.649Z,19.37
2023-05-10T10:19:37.131Z,19.60
2023-05-10T10:22:05.128Z,19.66
2023-05-10T10:24:33.043Z,19.61
2023-05-10T10:27:13.724Z,19.53
2023-05-10T10:29:50.913Z,19.18
2023-05-10T10:32:34.383Z,19.12
2023-05-10T10:35:02.121Z,19.59
2023-05-10T10:37:46.413Z,19.63
2023-05-10T10:40:34.852Z,19.47
2023-05-10T10:43:25.284Z,19.57
2023-05-10T10:46:18.995Z,19.92
2023-05-10T10:48:52.363Z,19.53
2023-05-10T10:51:19.595Z,19.68
2023-05-10T10:53:49.205Z,19.91
2023-05-10T10:56:16.622Z,20.35
2023-05-10T10:58:52.188Z,19.74
2023-05-10T11:01:20.723Z,19.56
2023-05-10T11:03:59.971Z,19.49
2023-05-10T11:06:35.199Z,19.80
2023-05-10T11:09:13.612Z,20.22
2023-05-10T11:11:56.521Z,20.29
2023-05-10T11:14:24.011Z,19.97
2023-05-10T11:16:51.305Z,20.11
2023-05-10T11:19:19.376Z,19.56
2023-05-10T11:21:52.330Z,19.92
2023-05-10T11:24:21.656Z,19.94
2023-05-10T11:26:51.250Z,19.63
2023-05-10T11:29:18.730Z,19.03
2023-05-10T11:31:47.638Z,19.20
2023-05-10T11:34:36.133Z,19.09
2023-05-10T11:37:03.547Z,19.59
2023-05-10T11:39:32.806Z,19.91
2023-05-10T11:42:00.521Z,19.56
2023-05-10T11:44:32.467Z,19.59
2023-05-10T11:47:03.000Z,19.75
2023-05-10T11:49:30.378Z,20.02
2023-05-10T11:52:12.416Z,20.53
2023-05-10T11:54:47.345Z,20.50
2023-05-10T11:57:14.748Z,20.18
2023-05-10T11:59:43.220Z,19.94
2023-05-10T12:02:11.445Z,20.18
2023-05-10T12:04:39.041Z,20.36
2023-05-10T12:07:06.617Z,20.62
2023-05-10T12:09:43.361Z,20.55
2023-05-10T12:12:16.934Z,20.56
2023-05-10T12:14:44.069Z,20.81
2023-05-10T12:17:23.842Z,21.11
2023-05-10T12:19:53.444Z,20.62
2023-05-10T12:22:22.339Z,20.88
2023-05-10T12:24:51.598Z,20.73
2023-05-10T12:27:18.763Z,20.40
2023-05-10T12:29:46.052Z,20.36
2023-05-10T12:32:13.405Z,20.40
2023-05-10T12:34:45.798Z,19.89
2023-05-10T12:37:13.432Z,19.92
2023-05-10T12:39:42.156Z,20.02
2023-05-10T12:42:19.880Z,20.32
2023-05-10T13:02:24.783Z,20.16
2023-05-10T13:04:52.461Z,20.37
2023-05-10T13:07:19.788Z,20.43
2023-05-10T13:09:47.121Z,20.50
2023-05-10T13:12:14.371Z,20.46
2023-05-10T13:14:41.698Z,20.45
2023-05-10T13:17:09.057Z,20.28
2023-05-10T13:19:36.434Z,20.25
2023-05-10T13:22:04.016Z,20.32
2023-05-10T13:24:31.286Z,20.26
2023-05-10T13:26:59.041Z,20.25
2023-05-10T13:29:26.293Z,20.11
2023-05-10T13:31:53.585Z,20.07
2023-05-10T13:34:25.183Z,20.14
2023-05-10T13:36:53.873Z,20.42
2023-05-10T13:39:21.643Z,20.53
2023-05-10T13:41:49.038Z,20.88
2023-05-10T13:44:16.743Z,20.43
2023-05-10T13:46:44.441Z,20.52
2023-05-10T13:49:11.672Z,20.40
2023-05-10T13:51:39.067Z,20.01
2023-05-10T13:54:06.214Z,19.98
2023-05-10T13:56:33.866Z,20.07
2023-05-10T13:59:01.182Z,19.91
2023-05-10T14:01:28.505Z,19.88
2023-05-10T14:03:55.867Z,19.89
2023-05-10T14:06:23.138Z,19.63
2023-05-10T14:08:50.272Z,19.67
2023-05-10T14:11:17.447Z,19.73
2023-05-10T14:13:44.585Z,19.89
2023-05-10T14:16:12.546Z,20.04
2023-05-10T14:18:39.757Z,20.19
2023-05-10T14:21:07.083Z,20.22
2023-05-10T14:23:34.217Z,20.37
2023-05-10T14:26:01.403Z,20.42
2023-05-10T14:28:28.598Z,20.56
2023-05-10T14:30:55.775Z,20.57
2023-05-10T14:33:22.990Z,20.45
2023-05-10T14:35:50.310Z,20.63
2023-05-10T14:38:17.585Z,20.56
2023-05-10T14:40:44.812Z,20.67
2023-05-10T14:43:11.959Z,20.53
2023-05-10T14:45:39.239Z,20.66
2023-05-10T14:48:06.762Z,20.67
2023-05-10T14:50:36.943Z,20.50
2023-05-10T14:53:04.812Z,20.35
2023-05-10T14:55:32.036Z,20.47
2023-05-10T14:57:59.736Z,20.39
2023-05-10T15:00:28.544Z,20.47
2023-05-10T15:02:56.405Z,20.43
2023-05-10T15:05:24.333Z,20.50
2023-05-10T15:07:51.942Z,20.56
2023-05-10T15:10:19.436Z,20.59
2023-05-10T15:12:46.626Z,20.49
2023-05-10T15:15:13.866Z,20.53
2023-05-10T15:17:41.134Z,20.63
2023-05-10T15:20:09.017Z,20.33
2023-05-10T15:22:36.200Z,20.04
2023-05-10T15:25:03.989Z,20.09
2023-05-10T15:27:31.154Z,20.18
2023-05-10T15:30:00.248Z,20.25
2023-05-10T15:32:27.762Z,20.32
2023-05-10T15:34:55.022Z,20.35
2023-05-10T15:37:24.148Z,20.30
2023-05-10T15:39:51.354Z,20.25
2023-05-10T15:42:18.622Z,20.29
2023-05-10T15:44:46.002Z,19.92
2023-05-10T15:47:13.162Z,19.85
2023-05-10T15:49:40.348Z,19.98
2023-05-10T15:52:07.497Z,20.08
2023-05-10T15:54:34.695Z,20.07
2023-05-10T15:57:02.118Z,20.14
2023-05-10T15:59:29.390Z,19.99
2023-05-10T16:01:57.316Z,19.70
2023-05-10T16:04:24.561Z,19.63
2023-05-10T16:06:51.714Z,19.70
2023-05-10T16:09:18.919Z,19.60
2023-05-10T16:11:46.290Z,19.54
2023-05-10T16:14:13.480Z,19.51
2023-05-10T16:16:41.373Z,19.45
2023-05-10T16:19:08.673Z,19.40
2023-05-10T16:21:35.954Z,19.36
2023-05-10T16:24:03.530Z,19.40
2023-05-10T16:26:30.732Z,19.41
2023-05-10T16:28:57.965Z,19.34
2023-05-10T16:31:25.404Z,19.23
2023-05-10T16:33:52.680Z,19.18
2023-05-10T16:36:20.876Z,19.22
2023-05-10T16:38:48.069Z,19.13
2023-05-10T16:41:15.606Z,19.01
2023-05-10T16:43:42.816Z,18.92
2023-05-10T16:46:11.287Z,18.84
2023-05-10T16:48:38.986Z,18.92
2023-05-10T16:51:06.222Z,18.88
2023-05-10T16:53:34.132Z,18.91
2023-05-10T16:56:01.491Z,18.76
2023-05-10T16:58:28.748Z,18.74
2023-05-10T17:00:55.998Z,18.69
2023-05-10T17:03:23.586Z,18.64
2023-05-10T17:05:50.863Z,18.55
2023-05-10T17:08:18.026Z,18.46
2023-05-10T17:10:45.459Z,18.46
2023-05-10T17:13:12.626Z,18.40
2023-05-10T17:15:39.870Z,18.26
2023-05-10T17:18:07.722Z,18.25
2023-05-10T17:20:35.033Z,18.07
2023-05-10T17:23:03.230Z,18.06
2023-05-10T17:25:30.387Z,17.90
2023-05-10T17:27:57.626Z,17.92
2023-05-10T17:30:27.524Z,17.85
2023-05-10T17:32:54.871Z,17.85
2023-05-10T17:35:22.103Z,17.79
2023-05-10T17:37:49.342Z,17.74
2023-05-10T17:40:16.707Z,17.50
2023-05-10T17:42:44.098Z,17.48
2023-05-10T17:45:11.813Z,17.47
2023-05-10T17:47:39.162Z,17.40
2023-05-10T17:50:06.919Z,17.30
2023-05-10T17:52:34.130Z,17.14
2023-05-10T17:55:01.538Z,17.19
2023-05-10T17:57:28.814Z,17.07
2023-05-10T17:59:56.138Z,16.93
2023-05-10T18:02:23.372Z,16.93
2023-05-10T18:04:50.644Z,16.92
2023-05-10T18:07:17.985Z,16.90
2023-05-10T18:09:45.097Z,16.82
2023-05-10T18:12:12.280Z,16.69
2023-05-10T18:14:41.389Z,16.54
2023-05-10T18:17:09.796Z,16.52
2023-05-10T18:19:37.241Z,16.42
2023-05-10T18:22:05.002Z,16.34
2023-05-10T18:27:03.919Z,16.11
2023-05-10T18:29:31.182Z,16.13
2023-05-10T18:31:58.383Z,16.17
2023-05-10T18:34:25.716Z,16.21
2023-05-10T18:36:53.166Z,16.11
2023-05-10T18:39:20.683Z,16.08
2023-05-10T18:41:47.875Z,16.00
2023-05-10T18:44:15.027Z,15.91
2023-05-10T18:46:42.638Z,15.70
2023-05-10T18:49:09.948Z,15.86
2023-05-10T18:51:37.080Z,15.70
2023-05-10T18:54:04.549Z,15.73
2023-05-10T18:56:31.739Z,15.71
2023-05-10T18:58:58.880Z,15.43
2023-05-10T19:01:26.153Z,15.46
2023-05-10T19:03:53.269Z,15.58
2023-05-10T19:06:20.837Z,15.39
2023-05-10T19:08:47.992Z,15.32
2023-05-10T19:11:15.154Z,15.32
2023-05-10T19:13:42.355Z,15.36
2023-05-10T19:16:16.669Z,15.42
2023-05-10T19:18:45.981Z,15.49
2023-05-10T19:21:13.445Z,15.31
2023-05-10T19:23:41.895Z,15.25
2023-05-10T19:26:09.542Z,15.29
2023-05-10T19:28:36.950Z,15.25
2023-05-10T19:31:04.267Z,14.97
2023-05-10T19:33:31.661Z,15.11
2023-05-10T19:35:58.793Z,15.22
2023-05-10T19:38:26.185Z,15.14
2023-05-10T19:40:59.482Z,15.21
2023-05-10T19:43:27.664Z,14.94
2023-05-10T19:45:57.943Z,14.93
2023-05-10T19:48:25.565Z,14.98
2023-05-10T19:50:53.793Z,14.97
2023-05-10T19:53:21.047Z,14.95
2023-05-10T19:55:48.474Z,14.93
2023-05-10T19:58:15.652Z,14.87
2023-05-10T20:00:42.751Z,14.85
2023-05-10T20:03:10.062Z,14.80
2023-05-10T20:05:37.240Z,14.74
2023-05-10T20:08:04.378Z,14.70
2023-05-10T20:10:31.626Z,14.53
2023-05-10T20:12:59.094Z,14.56
2023-05-10T20:15:27.872Z,14.62
2023-05-10T20:17:55.296Z,14.62
2023-05-10T20:20:22.592Z,14.66
2023-05-10T20:22:50.452Z,14.63
2023-05-10T20:25:18.510Z,14.53
2023-05-10T20:27:45.806Z,14.52
2023-05-10T20:30:13.110Z,14.52
2023-05-10T20:32:40.360Z,14.53
2023-05-10T20:35:07.884Z,14.37
2023-05-10T20:37:35.161Z,14.42
2023-05-10T20:40:02.359Z,14.52
2023-05-10T20:42:29.679Z,14.40
2023-05-10T20:44:56.964Z,14.49
2023-05-10T20:47:24.458Z,14.47
2023-05-10T20:49:51.685Z,14.09
2023-05-10T20:52:18.928Z,14.24
2023-05-10T20:54:46.336Z,14.18
2023-05-10T20:57:13.529Z,14.25
2023-05-10T20:59:40.705Z,14.33
2023-05-10T21:02:08.139Z,14.36
2023-05-10T21:04:35.405Z,14.28
2023-05-10T21:07:02.574Z,14.26
2023-05-10T21:09:29.780Z,14.26
2023-05-10T21:11:57.961Z,14.29
2023-05-10T21:14:25.083Z,14.21
2023-05-10T21:16:52.334Z,14.22
2023-05-10T21:19:19.472Z,14.24
2023-05-10T21:21:47.286Z,14.26
2023-05-10T21:24:14.455Z,14.15
2023-05-10T21:26:42.057Z,14.19
2023-05-10T21:29:09.206Z,14.12
2023-05-10T21:31:36.430Z,14.02
2023-05-10T21:34:03.693Z,13.98
2023-05-10T21:36:30.876Z,13.87
2023-05-10T21:38:58.158Z,13.94
2023-05-10T21:41:25.532Z,13.71
2023-05-10T21:43:52.882Z,13.75
2023-05-10T21:46:20.313Z,13.89
2023-05-10T21:48:47.478Z,13.88
2023-05-10T21:51:14.786Z,13.67
2023-05-10T21:53:41.947Z,13.71
2023-05-10T21:56:09.152Z,13.73
2023-05-10T21:58:36.625Z,13.66
2023-05-10T22:01:03.990Z,13.43
2023-05-10T22:03:31.549Z,13.47
2023-05-10T22:05:58.681Z,13.56
2023-05-10T22:08:26.075Z,13.47
2023-05-10T22:10:53.357Z,13.38
2023-05-10T22:13:20.715Z,13.38
2023-05-10T22:15:48.024Z,13.33
2023-05-10T22:18:15.274Z,13.33
2023-05-10T22:20:46.555Z,13.20
2023-05-10T22:23:14.097Z,13.22
2023-05-10T22:25:41.308Z,13.06
2023-05-10T22:28:09.216Z,13.13
2023-05-10T22:30:37.603Z,13.18
2023-05-10T22:33:04.888Z,13.08
2023-05-10T22:35:32.104Z,13.01
2023-05-10T22:37:59.530Z,12.96
2023-05-10T22:40:26.912Z,13.08
2023-05-10T22:42:54.137Z,12.80
2023-05-10T22:45:21.379Z,12.82
2023-05-10T22:47:48.715Z,12.80
2023-05-10T22:50:16.683Z,12.69
2023-05-10T22:52:44.031Z,12.74
2023-05-10T22:55:11.235Z,12.77
2023-05-10T22:57:38.517Z,12.81
2023-05-10T23:00:06.739Z,12.57
2023-05-10T23:02:34.565Z,12.68
2023-05-10T23:05:01.845Z,12.74
2023-05-10T23:07:29.087Z,12.82
2023-05-10T23:09:56.244Z,12.75
2023-05-10T23:12:23.653Z,12.78
2023-05-10T23:14:50.829Z,12.93
2023-05-10T23:17:18.025Z,13.02
2023-05-10T23:19:45.195Z,13.02
2023-05-10T23:22:12.404Z,13.11
2023-05-10T23:24:39.635Z,13.06
2023-05-10T23:27:06.800Z,13.12
2023-05-10T23:29:34.772Z,13.23
2023-05-10T23:32:02.026Z,13.15
2023-05-10T23:34:29.198Z,13.22
2023-05-10T23:36:56.485Z,13.23
2023-05-10T23:39:23.604Z,13.26
2023-05-10T23:41:51.705Z,13.26
2023-05-10T23:44:19.101Z,13.27
2023-05-10T23:46:46.443Z,13.33
2023-05-10T23:49:13.597Z,13.39
2023-05-10T23:51:40.939Z,13.33
2023-05-10T23:54:08.693Z,13.33
2023-05-10T23:56:35.935Z,13.38
2023-05-10T23:59:03.099Z,13.40
